Fall River, MA (02720)

8:53 PM EST on November 27, 2014 (GMT -0500)
North end | Change Station
CLOSE
Current Station
Personal Weather Station
Location: FALL RIVER, MA
Elevation: 200 ft
Nearby Weather Stations

Elev 200 ft 41.71 °N, 71.13 °W | Updated 8 minutes ago

Snow
Snow
33.0 °F
Feels Like 33 °F
N
3.0
Wind Variable Wind from NNW
Gusts 8.0 mph

Today
High -- | Low -- °F
--% Chance of Precip.
Yesterday
High -- | Low -- °F
Precip. -- in
6:47 AM 4:16 PM
Waxing Crescent, 35% visible
Pressure 29.98 in
Visibility 2.5 miles
Clouds Mostly Cloudy 300 ft
Overcast 2100 ft
Windchill 33 °F
Dew Point 32 °F
Humidity 97%
Rainfall 0.02 in
Snow Depth Not available.
UV 0 out of 12
Pollen .10 out of 12
Air Quality Not available.
Flu Activity Not available.
SPECI KEWB 280148Z VRB03KT 2 1/2SM -SN BR BKN003 OVC021 01/00 A2998 RMK AO2 P0001

More Conditions Fewer Conditions

Pressure 29.98 in
Visibility 2.5 miles
Clouds Mostly Cloudy 300 ft
Overcast 2100 ft
Windchill 33 °F
Dew Point 32 °F
Humidity 97%
Rainfall 0.02 in
Snow Depth Not available.
UV 0 out of 12
Pollen .10 out of 12
Air Quality Not available.
Flu Activity Not available.
SPECI KEWB 280148Z VRB03KT 2 1/2SM -SN BR BKN003 OVC021 01/00 A2998 RMK AO2 P0001

More Conditions Fewer Conditions

10-Day Weather Forecast

Almanac

Astronomy

Nov. 27, 2014 Rise Set
Actual Time
Civil Twilight
Nautical Twilight
Astronomical Twilight
Moon
Length of Visible Light
Length of Day
Tomorrow will be .
, % of the Moon is Illuminated

Today's Extremes

State Highs State Lows

Community

WunderPhotos

Upload Photos

1,774,151 photos uploaded!

WunderBlogs® & News

Nearby

Air Quality

  Air Quality AQ Index Pollutant
Not available.

Snow Depth

Station Depth Elevation

Earthquake Activity

City Distance Mag. Time & Date
Minimum magnitude displayed is 2.5.

Coastal Water Temperatures

Place Temperature

Nearby Weather Stations